createdAt,value
2023-02-22T00:10:32.431Z,319
2023-02-22T00:30:32.542Z,319
2023-02-22T00:50:32.509Z,318
2023-02-22T01:10:32.532Z,319
2023-02-22T01:30:32.652Z,318
2023-02-22T01:50:32.633Z,319
2023-02-22T02:10:32.663Z,322
2023-02-22T02:30:32.746Z,319
2023-02-22T02:50:32.765Z,318
2023-02-22T03:10:32.804Z,316
2023-02-22T03:30:32.928Z,313
2023-02-22T03:50:32.886Z,312
2023-02-22T04:10:32.951Z,309
2023-02-22T04:30:32.979Z,318
2023-02-22T04:50:33.011Z,319
2023-02-22T05:10:32.984Z,325
2023-02-22T05:30:33.224Z,321
2023-02-22T05:50:33.119Z,320
2023-02-22T06:10:33.124Z,316
2023-02-22T06:30:33.351Z,318
2023-02-22T06:50:35.756Z,317
2023-02-22T07:10:33.372Z,319
2023-02-22T07:30:33.478Z,323
2023-02-22T07:50:33.440Z,328
2023-02-22T08:10:33.493Z,332
2023-02-22T08:30:33.572Z,339
2023-02-22T08:50:33.709Z,349
2023-02-22T09:30:33.693Z,349
2023-02-22T09:50:33.680Z,346
2023-02-22T10:10:33.776Z,349
2023-02-22T10:50:33.796Z,349
2023-02-22T11:10:33.809Z,352
2023-02-22T11:30:33.926Z,355
2023-02-22T12:30:34.046Z,350
2023-02-22T12:50:33.985Z,354
2023-02-22T13:10:34.026Z,353
2023-02-22T13:30:34.086Z,348
2023-02-22T13:50:34.050Z,343
2023-02-22T14:10:35.495Z,345
2023-02-22T14:30:34.153Z,349
2023-02-22T15:10:34.193Z,346
2023-02-22T15:30:34.251Z,347
2023-02-22T15:50:34.341Z,341
2023-02-22T16:10:34.264Z,339
2023-02-22T16:30:34.285Z,341
2023-02-22T16:50:34.343Z,339
2023-02-22T17:10:34.361Z,330
2023-02-22T17:30:34.415Z,326
2023-02-22T17:50:34.431Z,330
2023-02-22T18:10:34.427Z,329
2023-02-22T18:30:34.510Z,329
2023-02-22T18:50:41.432Z,329
2023-02-22T19:10:34.592Z,332
2023-02-22T19:30:34.597Z,332
2023-02-22T19:50:34.631Z,335
2023-02-22T20:30:34.700Z,332
2023-02-22T20:50:34.746Z,331
2023-02-22T21:10:34.763Z,328
2023-02-22T21:30:34.955Z,331
2023-02-22T21:50:34.833Z,333
2023-02-22T22:10:34.880Z,334
2023-02-22T22:30:34.846Z,336
2023-02-22T23:10:35.058Z,324
2023-02-22T23:30:35.043Z,315
2023-02-22T23:50:35.043Z,306
